Morehouse, MO (63868)

7:19 PM CDT on September 04, 2015 (GMT -0500)
SEMO Electric Coop | | Change Station
CLOSE
Current Station
Personal Weather Station
Location: Sikeston, MO
Elevation: 338 ft
Nearby Weather Stations

Elev 338 ft 36.85 °N, 89.58 °W | Updated 8 minutes ago

Clear
Clear
88.5 °F
Feels Like 92 °F
N
3.0
Wind Variable Wind from East
Gusts 4.0 mph

Today
High -- | Low -- °F
--% Chance of Precip.
Yesterday
High -- | Low -- °F
Precip. -- in
6:31 AM 7:23 PM
Waning Gibbous, 54% visible
Pressure 29.97 in
Visibility 10.0 miles
Clouds Clear
Heat Index 92 °F
Dew Point 68 °F
Humidity 51%
Rainfall 0.00 in
Snow Depth Not available.
UV 0 out of 12
Pollen 10.80 out of 12
Air Quality Not available.
Flu Activity Not available.
METAR KCGI 042353Z AUTO 08004KT 10SM CLR 29/22 A2998 RMK AO2 SLP149 T02890222 10339 20289 58002
Pressure 29.97 in
Visibility 10.0 miles
Clouds Clear
Heat Index 92 °F
Dew Point 68 °F
Humidity 51%
Rainfall 0.00 in
Snow Depth Not available.
UV 0 out of 12
Pollen 10.80 out of 12
Air Quality Not available.
Flu Activity Not available.
METAR KCGI 042353Z AUTO 08004KT 10SM CLR 29/22 A2998 RMK AO2 SLP149 T02890222 10339 20289 58002

10-Day Weather Forecast

×

Almanac

Astronomy

Sep. 04, 2015 Rise Set
Actual Time
Civil Twilight
Nautical Twilight
Astronomical Twilight
Moon
Length of Visible Light
Length of Day
Tomorrow will be .
, % of the Moon is Illuminated

Today's Extremes

State Highs State Lows

Community

WunderPhotos

Upload Photos

1,852,345 photos uploaded!

WunderBlogs® & News

Nearby

Air Quality

  Air Quality AQ Index Pollutant
Not available.

Snow Depth

Station Depth Elevation

Earthquake Activity

City Distance Mag. Time & Date
Minimum magnitude displayed is 2.5.

Coastal Water Temperatures

Place Temperature

Stations

Nearby Weather Stations

Station Location Temp. Windchill Dew Point Humidity Wind Precip. Elev Updated Type